Time;durP1;ratioP1;P1;durP2;ratioP2;P2;SDS_P1;SDS_P2;PMS_P1;PMS_P2;Temp;Humidity;BMP_temperature;BMP_pressure;BME280_temperature;BME280_humidity;BME280_pressure;Samples;Min_cycle;Max_cycle;Signal;HPM_P1;HPM_P2
2023/02/27 00:01:25;;;;;;;5.27;3.30;;;-1.70;63.50;;;;;;5028779;28;20333;-57
2023/02/27 00:03:50;;;;;;;5.50;3.33;;;-1.70;63.70;;;;;;5034533;28;20202;-58
2023/02/27 00:06:16;;;;;;;3.47;2.93;;;-1.70;64.00;;;;;;5036231;28;20463;-57
2023/02/27 00:08:42;;;;;;;4.77;3.10;;;-1.70;64.40;;;;;;5027253;28;20185;-57
2023/02/27 00:11:08;;;;;;;4.03;3.47;;;-1.80;64.50;;;;;;5031931;28;20447;-59
2023/02/27 00:13:34;;;;;;;5.27;3.60;;;-1.80;64.70;;;;;;5018401;28;20869;-56
2023/02/27 00:16:00;;;;;;;3.60;3.13;;;-1.80;64.70;;;;;;5012291;28;20218;-56
2023/02/27 00:18:25;;;;;;;3.30;3.00;;;-1.80;64.90;;;;;;5011534;28;20461;-56
2023/02/27 00:20:51;;;;;;;8.03;2.90;;;-1.90;64.80;;;;;;5009608;28;20197;-56
2023/02/27 00:23:17;;;;;;;3.87;2.90;;;-1.90;64.90;;;;;;5008082;28;20209;-55
2023/02/27 00:25:42;;;;;;;3.87;3.13;;;-1.90;64.70;;;;;;5007156;28;20203;-57
2023/02/27 00:28:08;;;;;;;6.13;3.33;;;-1.90;64.70;;;;;;5009545;28;20181;-55
2023/02/27 00:30:34;;;;;;;3.80;3.20;;;-1.90;64.90;;;;;;5009807;28;20182;-56
2023/02/27 00:32:59;;;;;;;3.03;2.73;;;-1.80;65.20;;;;;;5007902;28;20190;-56
2023/02/27 00:35:25;;;;;;;5.57;3.00;;;-1.80;65.10;;;;;;5007627;28;20562;-57
2023/02/27 00:37:51;;;;;;;4.23;3.00;;;-1.80;64.80;;;;;;5011377;28;20186;-57
2023/02/27 00:40:16;;;;;;;4.73;3.30;;;-1.80;64.80;;;;;;5008936;28;20205;-56
2023/02/27 00:42:45;;;;;;;3.90;2.73;;;-1.80;64.90;;;;;;5006187;28;20193;-56
2023/02/27 00:45:10;;;;;;;3.53;3.10;;;-1.80;65.20;;;;;;5006731;28;20452;-57
2023/02/27 00:47:36;;;;;;;3.03;2.60;;;-1.80;65.40;;;;;;5010472;28;20448;-56
2023/02/27 00:50:02;;;;;;;5.53;3.40;;;-1.80;65.30;;;;;;5009430;28;20476;-56
2023/02/27 00:52:28;;;;;;;4.90;2.93;;;-1.80;65.20;;;;;;5008835;28;20661;-57
2023/02/27 00:54:54;;;;;;;3.60;3.30;;;-1.80;65.50;;;;;;5004417;28;20506;-57
2023/02/27 00:57:20;;;;;;;3.40;3.10;;;-1.80;65.60;;;;;;5007760;28;20433;-56
2023/02/27 00:59:47;;;;;;;6.37;3.43;;;-1.80;65.30;;;;;;5006817;28;20683;-55
2023/02/27 01:02:13;;;;;;;3.53;3.23;;;-1.80;65.50;;;;;;5004245;28;20475;-57
2023/02/27 01:04:39;;;;;;;3.97;3.57;;;-1.90;65.50;;;;;;5006390;28;20484;-56
2023/02/27 01:07:04;;;;;;;3.20;2.90;;;-1.90;65.80;;;;;;5007919;28;20434;-57
2023/02/27 01:09:30;;;;;;;3.00;2.80;;;-2.00;65.70;;;;;;5005243;28;20180;-57
2023/02/27 01:11:56;;;;;;;3.40;3.10;;;-2.00;65.90;;;;;;5005659;28;20182;-56
2023/02/27 01:14:22;;;;;;;3.10;2.80;;;-2.00;66.00;;;;;;5005883;28;20201;-56
2023/02/27 01:16:48;;;;;;;4.37;3.07;;;-2.00;65.80;;;;;;5001906;28;20458;-56
2023/02/27 01:19:13;;;;;;;3.63;3.03;;;-2.00;65.60;;;;;;5006849;28;20189;-56
2023/02/27 01:21:40;;;;;;;7.20;3.07;;;-2.00;65.30;;;;;;5006722;28;20592;-56
2023/02/27 01:24:06;;;;;;;6.63;2.93;;;-2.00;65.20;;;;;;5004343;28;20218;-56
2023/02/27 01:26:32;;;;;;;3.90;3.20;;;-2.00;65.30;;;;;;5005278;28;20428;-55
2023/02/27 01:28:58;;;;;;;3.40;2.90;;;-2.00;65.00;;;;;;5004893;28;20437;-55
2023/02/27 01:31:23;;;;;;;3.60;3.30;;;-2.00;64.60;;;;;;5006687;28;20667;-55
2023/02/27 01:33:49;;;;;;;5.33;2.97;;;-1.90;64.90;;;;;;5019823;28;20268;-56
2023/02/27 01:36:14;;;;;;;3.97;3.57;;;-1.90;65.10;;;;;;5008677;28;20578;-55
2023/02/27 01:38:40;;;;;;;3.40;3.10;;;-1.90;65.40;;;;;;5008874;28;20212;-56
2023/02/27 01:41:06;;;;;;;3.37;3.07;;;-1.90;65.50;;;;;;5006903;28;20217;-56
2023/02/27 01:43:33;;;;;;;3.83;3.40;;;-1.90;65.50;;;;;;5003534;28;20202;-55
2023/02/27 01:45:59;;;;;;;3.93;3.33;;;-2.00;65.50;;;;;;5012738;28;20429;-56
2023/02/27 01:48:35;;;;;;;5.37;2.73;;;-2.00;65.70;;;;;;5011709;28;20440;-57
2023/02/27 01:51:08;;;;;;;5.30;3.63;;;-2.00;65.60;;;;;;4999216;28;20436;-57
2023/02/27 01:53:37;;;;;;;3.27;3.07;;;-2.00;65.60;;;;;;5008509;28;20488;-56
2023/02/27 01:56:14;;;;;;;4.30;3.50;;;-2.00;65.40;;;;;;5006047;28;21539;-56
2023/02/27 01:58:42;;;;;;;4.93;3.87;;;-2.10;65.70;;;;;;5022569;28;20435;-55
2023/02/27 02:01:07;;;;;;;3.23;2.93;;;-2.10;66.20;;;;;;5003483;28;20469;-56
2023/02/27 02:03:59;;;;;;;3.30;3.00;;;-2.10;66.40;;;;;;5006240;28;20454;-56
2023/02/27 02:06:27;;;;;;;5.07;3.30;;;-2.10;66.80;;;;;;5005229;28;20179;-56
2023/02/27 02:08:54;;;;;;;3.27;3.00;;;-2.00;67.00;;;;;;5007036;28;20444;-56
2023/02/27 02:11:21;;;;;;;5.40;3.77;;;-2.00;66.80;;;;;;4999284;28;20970;-57
2023/02/27 02:13:50;;;;;;;3.70;3.20;;;-2.00;66.80;;;;;;5005041;28;20472;-56
2023/02/27 02:16:48;;;;;;;4.33;3.40;;;-2.00;66.90;;;;;;5007932;28;20448;-56
2023/02/27 02:19:22;;;;;;;7.40;3.40;;;-2.00;66.90;;;;;;5003655;28;20434;-56
2023/02/27 02:22:06;;;;;;;4.80;3.40;;;-2.00;66.60;;;;;;5004547;28;20468;-56
2023/02/27 02:24:32;;;;;;;4.30;3.10;;;-2.00;66.30;;;;;;5005246;28;20453;-57
2023/02/27 02:27:06;;;;;;;5.57;3.50;;;-2.00;65.80;;;;;;5006079;28;20535;-56
2023/02/27 02:29:53;;;;;;;3.53;3.03;;;-2.00;65.60;;;;;;4999437;28;20205;-57
2023/02/27 02:32:56;;;;;;;5.07;3.40;;;-2.00;65.60;;;;;;5002350;28;20498;-56
2023/02/27 02:36:03;;;;;;;7.03;3.30;;;-2.00;65.60;;;;;;4999558;28;20436;-56
2023/02/27 02:39:06;;;;;;;4.33;3.20;;;-2.00;65.70;;;;;;4985087;28;20439;-56
2023/02/27 02:41:44;;;;;;;3.50;2.97;;;-2.00;65.80;;;;;;4983544;28;20511;-56
2023/02/27 02:44:52;;;;;;;3.53;3.23;;;-2.00;65.90;;;;;;4999501;28;20472;-56
2023/02/27 02:47:18;;;;;;;6.47;3.60;;;-2.00;65.00;;;;;;4999212;28;20464;-57
2023/02/27 02:50:09;;;;;;;4.13;3.53;;;-2.10;65.10;;;;;;5004233;28;20461;-57
2023/02/27 02:52:47;;;;;;;3.40;3.13;;;-2.10;65.00;;;;;;5000863;28;20208;-56
2023/02/27 02:55:25;;;;;;;3.53;3.20;;;-2.10;64.90;;;;;;4998488;28;20971;-57
2023/02/27 02:58:00;;;;;;;6.37;3.27;;;-2.10;65.30;;;;;;5001192;28;20430;-56
2023/02/27 03:00:32;;;;;;;5.53;3.10;;;-2.10;65.40;;;;;;4995273;28;20551;-56
2023/02/27 03:03:26;;;;;;;3.53;3.20;;;-2.10;65.40;;;;;;5002602;28;20506;-56
2023/02/27 03:06:01;;;;;;;3.80;3.50;;;-2.10;65.50;;;;;;4997193;28;20441;-56
2023/02/27 03:08:33;;;;;;;4.93;3.90;;;-2.10;65.40;;;;;;4995781;28;20433;-56
2023/02/27 03:11:03;;;;;;;3.67;3.30;;;-2.10;65.20;;;;;;5006691;28;20463;-56
2023/02/27 03:13:51;;;;;;;4.83;3.60;;;-2.20;65.00;;;;;;5006856;28;20544;-56
2023/02/27 03:16:39;;;;;;;3.20;2.90;;;-2.20;65.00;;;;;;5008490;28;20444;-56
2023/02/27 03:19:12;;;;;;;4.10;3.50;;;-2.20;64.80;;;;;;5004968;28;21053;-56
2023/02/27 03:21:51;;;;;;;5.30;3.10;;;-2.20;64.80;;;;;;5008684;28;20956;-55
2023/02/27 03:24:23;;;;;;;4.67;3.20;;;-2.20;64.60;;;;;;5012720;28;20440;-56
2023/02/27 03:26:52;;;;;;;4.50;3.67;;;-2.20;65.00;;;;;;5001185;28;22282;-55
2023/02/27 03:29:24;;;;;;;4.03;3.70;;;-2.20;64.70;;;;;;5010375;28;20469;-56
2023/02/27 03:32:00;;;;;;;3.63;3.33;;;-2.20;64.90;;;;;;5011516;28;20420;-56
2023/02/27 03:34:34;;;;;;;4.17;3.50;;;-2.20;65.10;;;;;;5010549;28;20522;-56
2023/02/27 03:37:12;;;;;;;9.40;4.57;;;-2.20;65.10;;;;;;5002782;28;20537;-55
2023/02/27 03:39:46;;;;;;;5.17;3.87;;;-2.20;65.40;;;;;;5010196;28;20796;-56
2023/02/27 03:42:35;;;;;;;5.13;3.70;;;-2.20;65.90;;;;;;5004647;28;20484;-56
2023/02/27 03:45:18;;;;;;;5.40;4.07;;;-2.20;66.30;;;;;;5003654;28;20539;-56
2023/02/27 03:47:44;;;;;;;4.23;3.80;;;-2.20;66.20;;;;;;5020669;28;21068;-57
2023/02/27 03:50:10;;;;;;;5.57;3.80;;;-2.20;66.20;;;;;;5008461;28;20432;-58
2023/02/27 03:52:36;;;;;;;4.90;3.47;;;-2.20;66.50;;;;;;5005667;28;20244;-55
2023/02/27 03:55:09;;;;;;;4.13;3.30;;;-2.20;66.50;;;;;;5008152;28;20456;-56
2023/02/27 03:57:36;;;;;;;6.37;4.13;;;-2.20;66.70;;;;;;5006413;28;20261;-56
2023/02/27 04:00:04;;;;;;;3.90;3.50;;;-2.20;67.00;;;;;;5007794;28;20450;-57
2023/02/27 04:02:31;;;;;;;4.03;3.63;;;-2.20;67.20;;;;;;5006233;28;20501;-57
2023/02/27 04:04:57;;;;;;;7.33;5.60;;;-2.30;67.40;;;;;;5008658;28;21038;-55
2023/02/27 04:07:36;;;;;;;4.57;3.80;;;-2.30;67.90;;;;;;5009224;28;20432;-56
2023/02/27 04:10:14;;;;;;;7.57;4.07;;;-2.20;68.30;;;;;;4997805;28;20288;-55
2023/02/27 04:12:58;;;;;;;3.80;3.40;;;-2.20;68.30;;;;;;5005549;28;20535;-56
2023/02/27 04:15:38;;;;;;;4.03;3.47;;;-2.20;68.50;;;;;;5006538;28;20489;-56
2023/02/27 04:18:28;;;;;;;6.60;4.10;;;-2.20;68.50;;;;;;5003233;28;21098;-56
2023/02/27 04:21:24;;;;;;;8.47;4.33;;;-2.20;68.20;;;;;;5007078;28;20457;-56
2023/02/27 04:23:50;;;;;;;7.40;3.77;;;-2.20;68.20;;;;;;5005432;28;20976;-56
2023/02/27 04:26:42;;;;;;;4.67;4.17;;;-2.20;68.50;;;;;;5008497;28;20432;-55
2023/02/27 04:29:46;;;;;;;5.53;3.57;;;-2.20;68.50;;;;;;5004755;28;20185;-56
2023/02/27 04:32:12;;;;;;;4.97;4.30;;;-2.20;68.40;;;;;;4995215;28;20440;-57
2023/02/27 04:34:47;;;;;;;9.60;3.90;;;-2.20;68.90;;;;;;5007269;28;20857;-56
2023/02/27 04:37:30;;;;;;;4.07;3.73;;;-2.30;69.40;;;;;;5003907;28;20813;-55
2023/02/27 04:40:04;;;;;;;4.07;3.40;;;-2.30;69.70;;;;;;5004841;28;20482;-56
2023/02/27 04:42:33;;;;;;;6.83;4.37;;;-2.30;69.90;;;;;;5003424;28;20918;-55
2023/02/27 04:45:03;;;;;;;4.43;3.40;;;-2.30;70.40;;;;;;5010857;28;20452;-55
2023/02/27 04:47:34;;;;;;;6.30;4.53;;;-2.30;70.50;;;;;;5005259;28;21051;-56
2023/02/27 04:50:07;;;;;;;4.97;4.17;;;-2.30;70.40;;;;;;5003808;28;20436;-55
2023/02/27 04:52:38;;;;;;;5.13;4.17;;;-2.30;70.20;;;;;;5016183;28;20434;-56
2023/02/27 04:55:27;;;;;;;5.40;4.10;;;-2.30;70.10;;;;;;5003190;28;20468;-53
2023/02/27 04:58:09;;;;;;;5.40;4.03;;;-2.40;70.30;;;;;;4997003;28;20451;-53
2023/02/27 05:00:38;;;;;;;5.80;4.20;;;-2.40;71.20;;;;;;5007804;28;20545;-53
2023/02/27 05:03:13;;;;;;;5.23;4.20;;;-2.40;71.80;;;;;;5005603;28;20511;-56
2023/02/27 05:05:42;;;;;;;5.63;4.03;;;-2.50;71.90;;;;;;5002365;28;20814;-55
2023/02/27 05:08:43;;;;;;;4.10;3.80;;;-2.50;72.30;;;;;;5004034;28;20469;-58
2023/02/27 05:11:23;;;;;;;6.83;4.70;;;-2.50;72.20;;;;;;5004562;28;20448;-57
2023/02/27 05:13:53;;;;;;;5.10;4.30;;;-2.50;71.90;;;;;;5002540;28;20475;-60
2023/02/27 05:16:31;;;;;;;4.60;3.93;;;-2.50;71.40;;;;;;4997322;28;20452;-57
2023/02/27 05:18:58;;;;;;;4.87;4.17;;;-2.50;71.60;;;;;;4999876;28;20433;-56
2023/02/27 05:21:26;;;;;;;4.63;4.10;;;-2.50;72.50;;;;;;5005963;28;20545;-56
2023/02/27 05:24:20;;;;;;;7.63;4.30;;;-2.50;72.70;;;;;;4997880;28;20494;-52
2023/02/27 05:27:12;;;;;;;6.43;3.70;;;-2.50;72.20;;;;;;4997384;28;20635;-58
2023/02/27 05:29:49;;;;;;;6.53;4.27;;;-2.50;72.70;;;;;;5005292;28;20966;-57
2023/02/27 05:32:27;;;;;;;5.87;4.60;;;-2.50;73.20;;;;;;5006162;28;20472;-54
2023/02/27 05:35:02;;;;;;;5.80;4.40;;;-2.40;73.50;;;;;;4996879;28;20464;-57
2023/02/27 05:37:29;;;;;;;6.27;4.87;;;-2.40;72.20;;;;;;4999667;28;20801;-57
2023/02/27 05:39:57;;;;;;;6.40;5.03;;;-2.40;71.60;;;;;;5003210;28;21103;-56
2023/02/27 05:42:30;;;;;;;13.03;4.43;;;-2.40;71.30;;;;;;4999054;28;20520;-56
2023/02/27 05:45:04;;;;;;;5.30;4.63;;;-2.30;70.80;;;;;;4997235;28;20471;-57
2023/02/27 05:47:32;;;;;;;8.10;4.27;;;-2.20;79.60;;;;;;4998311;28;20431;-57
2023/02/27 05:50:19;;;;;;;4.97;4.30;;;-2.00;81.70;;;;;;5005622;28;20425;-57
2023/02/27 05:52:46;;;;;;;5.50;4.23;;;-2.00;72.10;;;;;;5005277;28;20468;-57
2023/02/27 05:55:23;;;;;;;5.53;4.00;;;-2.00;68.10;;;;;;5004620;28;20454;-57
2023/02/27 05:57:59;;;;;;;5.60;4.07;;;-2.10;67.80;;;;;;5008013;28;20432;-57
2023/02/27 06:00:36;;;;;;;6.70;4.70;;;-2.10;67.20;;;;;;5000280;28;20523;-57
2023/02/27 06:03:02;;;;;;;7.40;4.03;;;-2.20;67.90;;;;;;5007187;28;20512;-57
2023/02/27 06:05:28;;;;;;;7.67;4.70;;;-2.20;68.30;;;;;;5001601;28;20889;-58
2023/02/27 06:07:54;;;;;;;6.27;4.50;;;-2.30;68.40;;;;;;5007804;28;20934;-57
2023/02/27 06:10:20;;;;;;;4.37;3.90;;;-2.30;68.40;;;;;;5007914;28;20423;-58
2023/02/27 06:12:47;;;;;;;4.57;4.17;;;-2.30;69.00;;;;;;5009036;28;20248;-57
2023/02/27 06:15:13;;;;;;;7.90;4.97;;;-2.30;69.10;;;;;;5008081;28;21046;-57
2023/02/27 06:17:39;;;;;;;5.40;3.93;;;-2.40;69.00;;;;;;5009783;28;20189;-56
2023/02/27 06:20:08;;;;;;;5.60;4.13;;;-2.40;68.70;;;;;;5006963;28;20182;-58
2023/02/27 06:22:34;;;;;;;5.13;4.30;;;-2.40;68.50;;;;;;5007493;28;20449;-58
2023/02/27 06:25:00;;;;;;;5.30;4.50;;;-2.40;68.80;;;;;;5001326;28;20924;-57
2023/02/27 06:27:26;;;;;;;5.17;4.70;;;-2.40;69.00;;;;;;5009356;28;20168;-57
2023/02/27 06:29:52;;;;;;;5.10;4.30;;;-2.40;69.50;;;;;;5008473;28;20495;-57
2023/02/27 06:32:19;;;;;;;9.90;5.10;;;-2.40;70.00;;;;;;5004349;28;20192;-57
2023/02/27 06:34:44;;;;;;;12.53;5.50;;;-2.40;70.10;;;;;;5010220;28;20464;-57
2023/02/27 06:37:10;;;;;;;7.07;5.20;;;-2.40;70.00;;;;;;5006539;28;20432;-57
2023/02/27 06:39:36;;;;;;;6.17;4.97;;;-2.40;70.40;;;;;;5014001;28;20216;-57
2023/02/27 06:42:02;;;;;;;9.23;4.93;;;-2.40;70.50;;;;;;5008122;28;20936;-57
2023/02/27 06:44:28;;;;;;;6.87;5.00;;;-2.40;70.70;;;;;;5006698;28;20486;-58
2023/02/27 06:46:54;;;;;;;5.30;4.30;;;-2.40;70.50;;;;;;5005691;28;20194;-57
2023/02/27 06:49:20;;;;;;;9.97;5.70;;;-2.40;70.70;;;;;;4999187;28;20440;-57
2023/02/27 06:51:45;;;;;;;6.20;5.10;;;-2.40;71.60;;;;;;5009989;28;20613;-58
2023/02/27 06:54:11;;;;;;;7.00;4.60;;;-2.40;71.80;;;;;;5003144;28;20821;-57
2023/02/27 06:56:36;;;;;;;22.63;5.20;;;-2.40;72.30;;;;;;5006616;28;21921;-57
2023/02/27 06:59:02;;;;;;;6.03;4.60;;;-2.40;72.60;;;;;;5007266;28;20208;-58
2023/02/27 07:01:27;;;;;;;5.80;4.70;;;-2.40;72.00;;;;;;5000713;28;20796;-58
2023/02/27 07:03:53;;;;;;;6.47;4.90;;;-2.40;72.10;;;;;;4997843;28;20745;-58
2023/02/27 07:06:19;;;;;;;6.37;5.00;;;-2.30;72.00;;;;;;5007049;28;20186;-58
2023/02/27 07:08:44;;;;;;;7.83;4.50;;;-2.40;71.40;;;;;;5003992;28;20204;-58
2023/02/27 07:11:10;;;;;;;5.83;4.67;;;-2.40;71.80;;;;;;5007061;28;20177;-57
2023/02/27 07:13:36;;;;;;;7.80;4.50;;;-2.40;71.20;;;;;;5003748;28;20224;-58
2023/02/27 07:16:02;;;;;;;6.00;4.27;;;-2.40;71.60;;;;;;5003605;28;20655;-58
2023/02/27 07:18:27;;;;;;;5.53;4.77;;;-2.40;72.00;;;;;;5004289;28;21818;-58
2023/02/27 07:20:54;;;;;;;7.40;5.23;;;-2.30;72.30;;;;;;5007996;28;20196;-58
2023/02/27 07:23:20;;;;;;;7.33;4.60;;;-2.40;72.30;;;;;;5005733;28;20238;-57
2023/02/27 07:25:47;;;;;;;6.20;4.87;;;-2.30;72.50;;;;;;4995001;28;20560;-58
2023/02/27 07:28:12;;;;;;;6.57;4.97;;;-2.30;71.80;;;;;;5001866;28;20949;-58
2023/02/27 07:30:38;;;;;;;9.10;4.93;;;-2.30;71.20;;;;;;5000555;28;20464;-58
2023/02/27 07:33:04;;;;;;;9.93;5.00;;;-2.20;71.30;;;;;;5001544;28;20441;-58
2023/02/27 07:35:30;;;;;;;6.00;4.50;;;-2.20;70.00;;;;;;5000006;28;20188;-57
2023/02/27 07:37:56;;;;;;;7.23;4.60;;;-2.20;69.50;;;;;;5002343;28;20421;-58
2023/02/27 07:40:21;;;;;;;7.17;4.60;;;-2.20;69.20;;;;;;5000009;28;20710;-58
2023/02/27 07:42:48;;;;;;;5.60;4.20;;;-2.20;69.20;;;;;;5001545;28;20189;-57
2023/02/27 07:45:13;;;;;;;5.27;4.27;;;-2.10;68.50;;;;;;5016739;28;20193;-58
2023/02/27 07:47:39;;;;;;;8.23;4.67;;;-2.00;67.50;;;;;;5000086;28;20441;-57
2023/02/27 07:50:05;;;;;;;5.63;5.07;;;-2.00;67.70;;;;;;4997623;28;20182;-57
2023/02/27 07:52:31;;;;;;;6.33;4.80;;;-2.00;68.00;;;;;;4999181;28;20632;-58
2023/02/27 07:54:57;;;;;;;6.43;4.93;;;-2.00;67.30;;;;;;5001616;28;20577;-58
2023/02/27 07:57:22;;;;;;;8.20;4.47;;;-2.00;67.60;;;;;;5001385;28;20583;-59
2023/02/27 07:59:48;;;;;;;8.80;4.67;;;-2.00;67.20;;;;;;4995756;28;20193;-58
2023/02/27 08:02:14;;;;;;;6.37;4.43;;;-2.00;67.40;;;;;;5000789;28;20213;-58
2023/02/27 08:04:40;;;;;;;7.90;4.90;;;-2.00;66.60;;;;;;5001314;28;20313;-58
2023/02/27 08:07:05;;;;;;;11.33;4.60;;;-2.00;66.20;;;;;;5004695;28;20512;-59
2023/02/27 08:09:31;;;;;;;7.93;4.87;;;-2.00;66.20;;;;;;5000346;28;20182;-57
2023/02/27 08:11:57;;;;;;;8.10;5.10;;;-2.00;66.60;;;;;;5005586;28;20186;-58
2023/02/27 08:14:23;;;;;;;7.77;4.90;;;-2.00;66.90;;;;;;5002270;28;20653;-58
2023/02/27 08:16:48;;;;;;;6.37;4.80;;;-2.00;66.40;;;;;;5006689;28;20433;-59
2023/02/27 08:19:14;;;;;;;9.40;4.90;;;-2.00;66.60;;;;;;5007059;28;20185;-57
2023/02/27 08:21:40;;;;;;;7.97;5.20;;;-2.00;66.80;;;;;;5003960;28;20245;-57
2023/02/27 08:24:06;;;;;;;7.40;4.47;;;-2.00;66.70;;;;;;5004347;28;20196;-60
2023/02/27 08:26:32;;;;;;;6.33;4.80;;;-2.00;66.40;;;;;;5002609;28;20533;-59
2023/02/27 08:28:58;;;;;;;5.23;4.50;;;-2.00;66.30;;;;;;4999125;28;20178;-58
2023/02/27 08:31:24;;;;;;;6.90;4.70;;;-2.00;66.40;;;;;;5002533;28;20430;-58
2023/02/27 08:33:49;;;;;;;5.37;4.17;;;-2.10;66.50;;;;;;5004911;28;20208;-58
2023/02/27 08:36:15;;;;;;;6.70;4.40;;;-2.00;66.60;;;;;;5003510;28;20204;-58
2023/02/27 08:38:40;;;;;;;5.50;4.70;;;-2.10;66.40;;;;;;5004893;28;20193;-58
2023/02/27 08:41:06;;;;;;;5.73;4.57;;;-2.10;66.10;;;;;;4999369;28;20210;-58
2023/02/27 08:43:32;;;;;;;7.83;4.40;;;-2.10;66.10;;;;;;4995619;28;20217;-56
2023/02/27 08:45:57;;;;;;;8.00;4.30;;;-2.10;66.30;;;;;;4993257;28;20178;-57
2023/02/27 08:48:23;;;;;;;6.70;4.87;;;-2.10;65.80;;;;;;5000347;28;20187;-58
2023/02/27 08:50:50;;;;;;;7.60;4.63;;;-2.00;65.60;;;;;;5001474;28;20218;-55
2023/02/27 08:53:15;;;;;;;6.07;4.97;;;-2.10;65.40;;;;;;5001076;28;20445;-58
2023/02/27 08:55:41;;;;;;;9.00;4.70;;;-2.10;65.90;;;;;;4997383;28;20450;-56
2023/02/27 08:58:08;;;;;;;5.60;4.70;;;-2.00;65.80;;;;;;5001093;28;20191;-56
2023/02/27 09:00:33;;;;;;;7.60;4.50;;;-2.00;65.70;;;;;;4996559;28;20229;-56
2023/02/27 09:03:00;;;;;;;5.47;4.50;;;-2.00;65.30;;;;;;5002202;28;20934;-55
2023/02/27 09:05:26;;;;;;;6.83;5.40;;;-2.00;66.10;;;;;;5000998;28;20179;-57
2023/02/27 09:07:52;;;;;;;5.17;4.20;;;-2.00;65.70;;;;;;5003299;28;20963;-56
2023/02/27 09:10:17;;;;;;;6.30;4.83;;;-2.00;65.90;;;;;;4999075;28;20446;-58
2023/02/27 09:12:43;;;;;;;7.07;4.90;;;-2.00;66.40;;;;;;4994776;28;20223;-58
2023/02/27 09:15:10;;;;;;;9.20;5.00;;;-1.90;67.00;;;;;;5000401;28;20214;-58
2023/02/27 09:17:36;;;;;;;6.03;4.77;;;-1.90;65.90;;;;;;5000980;28;20189;-57
2023/02/27 09:20:03;;;;;;;7.20;5.20;;;-1.90;66.00;;;;;;4998138;28;20453;-58
2023/02/27 09:22:29;;;;;;;8.13;5.33;;;-1.90;65.60;;;;;;4998338;28;20525;-58
2023/02/27 09:24:55;;;;;;;5.57;4.47;;;-1.80;65.50;;;;;;4996719;28;20467;-60
2023/02/27 09:27:22;;;;;;;7.53;5.40;;;-1.80;65.40;;;;;;5003659;28;20429;-55
2023/02/27 09:29:54;;;;;;;7.60;4.60;;;-1.80;65.10;;;;;;4996025;28;20184;-58
2023/02/27 09:32:22;;;;;;;6.20;4.13;;;-1.70;64.50;;;;;;4989931;28;21348;-58
2023/02/27 09:34:48;;;;;;;6.53;4.97;;;-1.70;64.40;;;;;;4997996;28;20455;-57
2023/02/27 09:37:14;;;;;;;9.07;4.50;;;-1.70;64.50;;;;;;4998533;28;20412;-58
2023/02/27 09:39:40;;;;;;;6.00;5.10;;;-1.70;63.80;;;;;;4998231;28;20899;-58
2023/02/27 09:42:18;;;;;;;5.97;4.20;;;-1.60;62.90;;;;;;5001091;28;20568;-58
2023/02/27 09:44:49;;;;;;;7.87;4.57;;;-1.70;62.80;;;;;;5002061;28;20464;-58
2023/02/27 09:47:23;;;;;;;6.60;4.40;;;-1.60;63.20;;;;;;5000101;28;21408;-58
2023/02/27 09:50:23;;;;;;;7.50;4.40;;;-1.60;62.80;;;;;;4995926;28;21086;-58
2023/02/27 09:52:49;;;;;;;8.00;4.40;;;-1.50;62.50;;;;;;4996599;28;20556;-58
2023/02/27 09:55:20;;;;;;;6.33;4.47;;;-1.40;62.00;;;;;;5000511;28;20526;-58
2023/02/27 09:58:05;;;;;;;5.43;4.50;;;-1.50;61.90;;;;;;4999904;28;20698;-59
2023/02/27 10:00:46;;;;;;;5.70;4.50;;;-1.40;62.20;;;;;;5002543;28;20472;-57
2023/02/27 10:03:23;;;;;;;5.93;4.70;;;-1.30;62.10;;;;;;5000523;28;20489;-57
2023/02/27 10:06:08;;;;;;;6.97;5.00;;;-1.30;61.30;;;;;;5000917;28;20901;-57
2023/02/27 10:08:47;;;;;;;7.70;4.30;;;-1.30;61.30;;;;;;4994857;28;20459;-56
2023/02/27 10:11:16;;;;;;;4.83;4.33;;;-1.30;61.10;;;;;;4997169;28;20459;-57
2023/02/27 10:14:04;;;;;;;6.07;4.40;;;-1.30;60.90;;;;;;4998333;28;20481;-56
2023/02/27 10:16:32;;;;;;;5.77;4.43;;;-1.30;60.70;;;;;;4998690;28;20436;-57
2023/02/27 10:19:00;;;;;;;6.07;4.60;;;-1.30;60.80;;;;;;4997243;28;20436;-56
2023/02/27 10:21:47;;;;;;;9.27;4.40;;;-1.30;60.70;;;;;;4998630;28;20464;-56
2023/02/27 10:24:30;;;;;;;10.00;4.70;;;-1.20;60.50;;;;;;4992526;28;20462;-57
2023/02/27 10:26:58;;;;;;;5.63;4.97;;;-1.20;60.40;;;;;;4994280;28;20466;-58
2023/02/27 10:29:40;;;;;;;6.63;4.27;;;-1.10;60.10;;;;;;4996283;28;20448;-58
2023/02/27 10:32:11;;;;;;;4.53;4.10;;;-1.10;59.90;;;;;;4994992;28;20445;-58
2023/02/27 10:34:40;;;;;;;7.43;4.73;;;-1.00;59.70;;;;;;5004239;28;20494;-58
2023/02/27 10:37:07;;;;;;;7.87;4.57;;;-1.00;59.50;;;;;;5001191;28;20415;-57
2023/02/27 10:39:52;;;;;;;5.37;4.40;;;-1.00;59.40;;;;;;4995640;28;20439;-59
2023/02/27 10:42:18;;;;;;;6.40;4.47;;;-1.00;59.40;;;;;;5000513;28;20467;-58
2023/02/27 10:44:43;;;;;;;6.37;4.30;;;-0.90;59.10;;;;;;4997703;28;20456;-58
2023/02/27 10:47:15;;;;;;;9.53;4.93;;;-0.90;58.80;;;;;;4997674;28;20807;-58
2023/02/27 10:49:42;;;;;;;6.47;4.43;;;-0.90;59.30;;;;;;4995564;28;20189;-58
2023/02/27 10:52:11;;;;;;;6.60;5.30;;;-0.90;58.80;;;;;;4996000;28;20492;-57
2023/02/27 10:54:37;;;;;;;6.17;4.40;;;-0.80;58.80;;;;;;5000330;28;20963;-59
2023/02/27 10:57:17;;;;;;;4.30;3.83;;;-0.70;58.60;;;;;;4998045;28;20518;-57
2023/02/27 10:59:54;;;;;;;4.87;4.00;;;-0.70;58.00;;;;;;4995133;28;20448;-58
2023/02/27 11:02:37;;;;;;;6.67;4.33;;;-0.60;57.90;;;;;;4989130;28;20468;-58
2023/02/27 11:05:05;;;;;;;4.10;3.80;;;-0.60;58.10;;;;;;5002609;28;20483;-59
2023/02/27 11:07:36;;;;;;;5.97;4.17;;;-0.60;58.00;;;;;;4994505;28;20489;-57
2023/02/27 11:10:16;;;;;;;5.77;4.03;;;-0.60;57.90;;;;;;4991574;28;20436;-58
2023/02/27 11:13:03;;;;;;;8.20;4.60;;;-0.60;58.00;;;;;;4998206;28;20473;-58
2023/02/27 11:15:31;;;;;;;5.60;4.30;;;-0.60;57.80;;;;;;4998118;28;20429;-58
2023/02/27 11:18:18;;;;;;;4.70;4.30;;;-0.60;57.80;;;;;;5001189;28;20426;-57
2023/02/27 11:20:46;;;;;;;6.67;4.20;;;-0.60;57.60;;;;;;4995392;28;20464;-57
2023/02/27 11:23:21;;;;;;;4.83;4.07;;;-0.60;57.60;;;;;;5001906;28;20440;-58
2023/02/27 11:25:47;;;;;;;12.43;4.47;;;-0.60;58.00;;;;;;5000364;28;20468;-57
2023/02/27 11:28:12;;;;;;;8.77;4.60;;;-0.60;57.80;;;;;;5000914;28;20433;-58
2023/02/27 11:30:41;;;;;;;5.70;4.03;;;-0.60;57.60;;;;;;4993550;28;21164;-59
2023/02/27 11:33:17;;;;;;;6.90;4.80;;;-0.60;57.40;;;;;;4997053;28;20176;-57
2023/02/27 11:35:52;;;;;;;6.60;4.80;;;-0.60;57.40;;;;;;5003477;28;20499;-57
2023/02/27 11:38:23;;;;;;;5.63;4.23;;;-0.70;57.00;;;;;;5003903;28;20558;-58
2023/02/27 11:40:58;;;;;;;8.80;4.27;;;-0.70;57.20;;;;;;5008127;28;20461;-57
2023/02/27 11:43:32;;;;;;;5.40;4.50;;;-0.60;57.50;;;;;;5021867;28;20456;-57
2023/02/27 11:46:01;;;;;;;4.07;3.57;;;-0.70;57.30;;;;;;5013469;28;20523;-57
2023/02/27 11:48:39;;;;;;;17.93;4.30;;;-0.70;57.10;;;;;;5006702;28;20517;-58
2023/02/27 11:51:17;;;;;;;4.97;3.87;;;-0.60;57.10;;;;;;5004457;28;20459;-57
2023/02/27 11:54:00;;;;;;;7.67;4.07;;;-0.70;57.00;;;;;;5005698;28;20595;-57
2023/02/27 11:56:32;;;;;;;6.20;4.53;;;-0.70;56.80;;;;;;5009163;28;20437;-57
2023/02/27 11:59:05;;;;;;;10.90;4.63;;;-0.70;56.90;;;;;;5006889;28;20436;-59
2023/02/27 12:01:41;;;;;;;5.23;4.07;;;-0.70;57.10;;;;;;5004215;28;20484;-57
2023/02/27 12:04:37;;;;;;;6.83;4.60;;;-0.70;57.20;;;;;;5009446;28;20457;-57
2023/02/27 12:07:22;;;;;;;6.53;4.60;;;-0.70;57.40;;;;;;5002625;28;20810;-57
2023/02/27 12:10:00;;;;;;;5.33;3.90;;;-0.80;57.50;;;;;;5004243;28;20682;-56
2023/02/27 12:12:44;;;;;;;12.43;4.87;;;-0.80;57.50;;;;;;5015485;28;20444;-59
2023/02/27 12:15:26;;;;;;;4.70;3.93;;;-0.80;58.30;;;;;;5004567;28;20471;-57
2023/02/27 12:18:15;;;;;;;5.90;4.03;;;-0.80;57.70;;;;;;5005018;28;20464;-57
2023/02/27 12:20:59;;;;;;;5.10;3.97;;;-0.80;57.80;;;;;;5009079;28;20831;-57
2023/02/27 12:23:32;;;;;;;5.67;4.20;;;-0.70;58.00;;;;;;4998591;28;20806;-58
2023/02/27 12:26:22;;;;;;;5.37;4.20;;;-0.70;57.90;;;;;;5008416;28;20444;-57
2023/02/27 12:29:12;;;;;;;5.57;4.00;;;-0.70;57.60;;;;;;5005917;28;20437;-58
2023/02/27 12:31:45;;;;;;;9.20;4.90;;;-0.70;57.20;;;;;;5005479;28;20456;-58
2023/02/27 12:34:29;;;;;;;6.50;4.17;;;-0.70;57.50;;;;;;4999648;28;20457;-58
2023/02/27 12:37:03;;;;;;;5.33;4.00;;;-0.70;57.40;;;;;;5004822;28;20441;-58
2023/02/27 12:39:30;;;;;;;12.80;5.70;;;-0.60;57.30;;;;;;5002852;28;20483;-59
2023/02/27 12:42:18;;;;;;;5.60;4.10;;;-0.60;57.20;;;;;;5005756;28;20504;-57
2023/02/27 12:45:03;;;;;;;5.03;4.23;;;-0.60;57.00;;;;;;5023431;28;20445;-57
2023/02/27 12:47:57;;;;;;;5.27;4.10;;;-0.60;56.90;;;;;;5006872;28;20425;-57
2023/02/27 12:50:24;;;;;;;4.83;4.03;;;-0.50;57.10;;;;;;5004234;28;20431;-57
2023/02/27 12:53:12;;;;;;;5.97;4.40;;;-0.60;56.80;;;;;;5005296;28;20464;-57
2023/02/27 12:55:51;;;;;;;6.77;4.00;;;-0.50;56.80;;;;;;5001302;28;20441;-57
2023/02/27 12:58:45;;;;;;;7.50;3.97;;;-0.50;57.00;;;;;;5003730;28;21049;-57
2023/02/27 13:01:13;;;;;;;5.20;4.07;;;-0.50;56.70;;;;;;4999148;28;20455;-57
2023/02/27 13:03:45;;;;;;;6.17;4.40;;;-0.60;56.60;;;;;;5006834;28;21226;-57
2023/02/27 13:06:45;;;;;;;5.57;4.30;;;-0.50;56.40;;;;;;4997487;28;20434;-56
2023/02/27 13:09:33;;;;;;;6.27;4.37;;;-0.50;56.10;;;;;;5028157;28;20433;-58
2023/02/27 13:12:43;;;;;;;4.47;3.90;;;-0.50;56.20;;;;;;5005286;28;20452;-57